Time;durP1;ratioP1;P1;durP2;ratioP2;P2;SDS_P1;SDS_P2;PMS_P1;PMS_P2;Temp;Humidity;BMP_temperature;BMP_pressure;BME280_temperature;BME280_humidity;BME280_pressure;Samples;Min_cycle;Max_cycle;Signal;HPM_P1;HPM_P2
2023/07/20 00:06:27;;;;;;;6.05;2.70;;;;;;;27.19;45.73;99597.81;41608762;28;20442;-83
2023/07/20 00:26:27;;;;;;;8.80;2.90;;;;;;;26.94;46.43;99591.84;41602723;28;20061;-81
2023/07/20 00:46:30;;;;;;;5.70;2.53;;;;;;;26.68;46.74;99604.44;41598398;28;20520;-80
2023/07/20 01:07:01;;;;;;;7.97;3.35;;;;;;;26.52;47.67;99573.50;41590983;28;20053;-80
2023/07/20 01:27:25;;;;;;;5.07;2.45;;;;;;;26.46;47.99;99571.50;41592127;28;20547;-81
2023/07/20 01:47:26;;;;;;;5.13;2.50;;;;;;;26.31;47.80;99582.03;41592065;28;20048;-81
2023/07/20 02:07:27;;;;;;;4.25;2.88;;;;;;;26.13;48.44;99603.47;41587978;28;20053;-83
2023/07/20 02:27:27;;;;;;;5.10;2.80;;;;;;;25.99;48.66;99605.00;41603350;28;20509;-81
2023/07/20 02:47:29;;;;;;;9.93;3.30;;;;;;;26.07;49.48;99608.66;41602052;28;20124;-84
2023/07/20 03:07:29;;;;;;;5.65;2.88;;;;;;;25.98;49.78;99629.03;41577037;28;20050;-80
2023/07/20 03:27:30;;;;;;;5.85;2.50;;;;;;;25.78;48.87;99644.47;41629994;28;20563;-81
2023/07/20 03:47:30;;;;;;;11.48;3.33;;;;;;;25.79;48.52;99667.34;41662493;28;20115;-83
2023/07/20 04:07:30;;;;;;;5.72;2.88;;;;;;;25.60;47.92;99682.59;41631543;28;20408;-83
2023/07/20 04:27:31;;;;;;;4.35;2.40;;;;;;;25.40;47.31;99668.81;41601506;28;20512;-80
2023/07/20 04:47:32;;;;;;;8.32;3.33;;;;;;;25.32;47.12;99668.81;41583578;28;20407;-80
2023/07/20 05:07:32;;;;;;;5.90;2.80;;;;;;;24.68;48.06;99683.38;41600559;28;20128;-80
2023/07/20 05:27:33;;;;;;;5.80;2.78;;;;;;;24.88;46.23;99681.28;41587014;28;20412;-76
2023/07/20 05:47:33;;;;;;;5.07;2.75;;;;;;;25.08;44.35;99695.09;41588558;28;20137;-77
2023/07/20 06:07:34;;;;;;;5.68;2.85;;;;;;;25.20;44.17;99689.47;41577350;28;20046;-77
2023/07/20 06:27:34;;;;;;;7.93;2.95;;;;;;;25.23;44.51;99711.19;41536932;28;20056;-76
2023/07/20 06:47:34;;;;;;;9.45;3.40;;;;;;;25.48;44.10;99731.63;41570611;28;20046;-76
2023/07/20 07:07:35;;;;;;;6.85;2.67;;;;;;;25.59;44.14;99763.13;41568110;28;20443;-77
2023/07/20 07:27:37;;;;;;;7.80;2.70;;;;;;;25.77;41.86;99747.06;41583827;28;20077;-76
2023/07/20 07:47:37;;;;;;;4.75;2.65;;;;;;;25.88;41.26;99767.16;41601407;28;20578;-79
2023/07/20 08:07:38;;;;;;;4.35;2.35;;;;;;;26.15;39.98;99767.84;41607904;28;20073;-80
2023/07/20 08:27:38;;;;;;;9.88;2.53;;;;;;;26.36;38.63;99781.41;41578067;28;20054;-78
2023/07/20 08:47:41;;;;;;;11.00;2.92;;;;;;;26.62;38.71;99780.38;41628455;28;20050;-78
2023/07/20 09:07:43;;;;;;;8.57;2.20;;;;;;;26.86;36.18;99801.75;41634462;28;20041;-77
2023/07/20 09:27:46;;;;;;;7.28;2.00;;;;;;;27.02;36.80;99787.59;41665610;28;20116;-78
2023/07/20 09:47:46;;;;;;;;;;;;;;;27.10;37.26;99790.19;41656865;28;20504;-75
2023/07/20 10:07:48;;;;;;;6.60;2.10;;;;;;;27.28;36.70;99793.44;41631308;28;19925;-79
2023/07/20 10:27:50;;;;;;;5.68;1.83;;;;;;;27.36;36.96;99800.56;41658435;28;20041;-77
2023/07/20 10:47:55;;;;;;;5.53;2.00;;;;;;;27.51;35.48;99792.69;41672567;28;20057;-77
2023/07/20 11:07:57;;;;;;;5.45;1.80;;;;;;;27.52;35.03;99804.16;41662879;28;20556;-76
2023/07/20 11:27:59;;;;;;;4.28;1.70;;;;;;;27.56;34.44;99776.19;41633335;28;20046;-78
2023/07/20 11:48:00;;;;;;;2.95;1.67;;;;;;;27.69;33.94;99799.56;41619032;28;20109;-78
2023/07/20 12:08:00;;;;;;;3.55;1.70;;;;;;;28.20;33.22;99765.25;41647973;28;20045;-78
2023/07/20 12:28:02;;;;;;;3.63;1.90;;;;;;;28.61;32.93;99750.69;41626172;28;20103;-78
2023/07/20 12:48:03;;;;;;;4.63;1.67;;;;;;;28.86;31.15;99748.63;41628351;28;20111;-80
2023/07/20 13:08:05;;;;;;;4.72;1.50;;;;;;;29.14;31.14;99757.75;41648024;28;20488;-79
2023/07/20 13:28:05;;;;;;;4.28;1.50;;;;;;;29.41;29.21;99753.59;41690959;28;20065;-82
2023/07/20 13:48:06;;;;;;;5.68;1.50;;;;;;;29.47;29.63;99746.69;41663751;28;20107;-81
2023/07/20 14:08:06;;;;;;;3.85;1.67;;;;;;;29.62;29.98;99733.28;41604931;28;20037;-81
2023/07/20 14:28:07;;;;;;;2.67;1.50;;;;;;;29.53;30.82;99737.91;41676472;28;20061;-80
2023/07/20 14:48:08;;;;;;;4.03;1.50;;;;;;;29.63;30.67;99742.94;41653404;28;20049;-82
2023/07/20 15:08:08;;;;;;;1.48;1.33;;;;;;;29.91;28.55;99740.34;41633404;28;20041;-84
2023/07/20 15:28:09;;;;;;;2.38;1.45;;;;;;;29.81;28.64;99748.63;41661243;28;20052;-87
2023/07/20 15:48:09;;;;;;;3.80;1.63;;;;;;;29.91;28.52;99735.00;41665011;28;20052;-87
2023/07/20 16:08:09;;;;;;;1.70;1.30;;;;;;;29.79;28.73;99753.34;41668631;28;20463;-85
2023/07/20 16:28:10;;;;;;;3.93;1.57;;;;;;;29.65;28.59;99752.41;41706733;28;20042;-85
2023/07/20 16:48:11;;;;;;;2.93;1.60;;;;;;;29.48;28.59;99764.31;41844403;28;20716;-83
2023/07/20 17:08:11;;;;;;;3.83;1.63;;;;;;;29.00;29.32;99759.44;41659310;28;20489;-81
2023/07/20 17:28:13;;;;;;;2.70;1.60;;;;;;;28.73;29.67;99770.59;41783051;28;20049;-83
2023/07/20 17:48:13;;;;;;;3.80;2.25;;;;;;;28.53;30.77;99788.91;41788774;28;20075;-84
2023/07/20 18:08:15;;;;;;;6.70;2.33;;;;;;;28.45;31.39;99791.66;41814187;28;20044;-87
2023/07/20 18:28:16;;;;;;;3.17;1.90;;;;;;;28.30;31.90;99793.47;41804865;28;20071;-84
2023/07/20 18:48:17;;;;;;;3.20;1.75;;;;;;;28.07;33.01;99812.97;41795928;28;20037;-85
2023/07/20 19:08:18;;;;;;;4.78;1.95;;;;;;;27.87;33.60;99841.81;41819841;28;20041;-85
2023/07/20 19:28:23;;;;;;;6.07;2.13;;;;;;;27.64;34.18;99874.56;41844249;28;20510;-84
2023/07/20 19:48:23;;;;;;;3.95;2.22;;;;;;;27.81;34.55;99896.59;41838305;28;20079;-84
2023/07/20 20:08:28;;;;;;;8.00;1.98;;;;;;;27.70;34.35;99903.13;41806855;28;20040;-84
2023/07/20 20:28:31;;;;;;;4.75;2.20;;;;;;;27.56;35.20;99909.16;41788611;28;20404;-85
2023/07/20 20:48:35;;;;;;;2.30;2.10;;;;;;;27.37;35.27;99907.72;41762847;28;20049;-86
2023/07/20 21:08:36;;;;;;;4.25;2.17;;;;;;;27.20;35.26;99914.94;41767673;28;20128;-84
2023/07/20 21:28:36;;;;;;;5.45;2.15;;;;;;;26.94;36.38;99935.41;41767940;28;20664;-83
2023/07/20 21:48:37;;;;;;;4.82;2.30;;;;;;;26.66;37.06;99943.69;41755921;28;20103;-85
2023/07/20 22:08:37;;;;;;;4.45;2.33;;;;;;;26.55;37.70;99943.16;41758016;28;20044;-86
2023/07/20 22:28:38;;;;;;;4.72;2.72;;;;;;;26.26;38.49;99955.09;41722258;28;20063;-85
2023/07/20 22:48:38;;;;;;;4.13;2.50;;;;;;;26.13;38.74;99968.81;41612782;28;20038;-86
2023/07/20 23:08:38;;;;;;;6.78;2.75;;;;;;;25.63;39.36;99965.94;41602401;28;20554;-84
2023/07/20 23:28:39;;;;;;;6.40;2.95;;;;;;;25.64;39.71;99967.63;41596691;28;20045;-85
2023/07/20 23:48:40;;;;;;;5.50;2.50;;;;;;;25.31;40.30;99977.19;41603089;28;20042;-85
